createdAt,value
2018-12-22T00:02:42.737Z,99933.37
2018-12-22T00:06:03.420Z,99938.61
2018-12-22T00:09:23.290Z,99932.81
2018-12-22T00:12:43.631Z,99938.84
2018-12-22T00:16:03.236Z,99948.34
2018-12-22T00:19:22.148Z,99953.14
2018-12-22T00:22:42.355Z,99955.58
2018-12-22T00:26:02.336Z,99969.13
2018-12-22T00:29:22.641Z,99976.89
2018-12-22T00:32:43.075Z,99980.63
2018-12-22T00:36:03.128Z,99986.05
2018-12-22T00:39:23.163Z,99980.78
2018-12-22T00:42:42.652Z,99999.66
2018-12-22T00:45:50.432Z,100002.25
2018-12-22T00:48:57.980Z,100016.17
2018-12-22T00:52:05.900Z,100009.92
2018-12-22T00:55:13.924Z,100029.42
2018-12-22T00:58:21.495Z,100036.16
2018-12-22T01:01:28.991Z,100048.73
2018-12-22T01:04:48.217Z,100055.66
2018-12-22T01:08:08.596Z,100061.88
2018-12-22T01:11:19.136Z,100071.30
2018-12-22T01:14:26.829Z,100082.70
2018-12-22T01:17:34.268Z,100088.79
2018-12-22T01:20:41.748Z,100089.56
2018-12-22T01:23:49.221Z,100107.62
2018-12-22T01:27:08.379Z,100113.82
2018-12-22T01:30:27.052Z,100113.50
2018-12-22T01:33:48.632Z,100126.89
2018-12-22T01:37:08.215Z,100122.67
2018-12-22T01:40:15.839Z,100130.51
2018-12-22T01:43:23.316Z,100119.33
2018-12-22T01:46:30.816Z,100141.38
2018-12-22T01:49:38.404Z,100141.51
2018-12-22T01:52:45.900Z,100154.98
2018-12-22T01:55:53.587Z,100156.14
2018-12-22T01:59:01.126Z,100145.06
2018-12-22T02:02:08.588Z,100154.72
2018-12-22T02:05:28.613Z,100156.79
2018-12-22T02:08:36.110Z,100163.25
2018-12-22T02:11:43.877Z,100159.47
2018-12-22T02:14:51.393Z,100164.12
2018-12-22T02:18:11.816Z,100171.38
2018-12-22T02:21:19.299Z,100179.26
2018-12-22T02:24:26.748Z,100176.92
2018-12-22T02:27:34.327Z,100184.43
2018-12-22T02:30:41.780Z,100185.95
2018-12-22T02:33:49.264Z,100184.66
2018-12-22T02:37:09.592Z,100186.22
2018-12-22T02:40:17.245Z,100194.36
2018-12-22T02:43:25.074Z,100204.52
2018-12-22T02:46:44.800Z,100205.45
2018-12-22T02:50:09.807Z,100205.63
2018-12-22T02:53:30.261Z,100202.13
2018-12-22T02:56:50.265Z,100210.94
2018-12-22T03:00:12.347Z,100211.08
2018-12-22T03:03:21.460Z,100218.20
2018-12-22T03:06:29.227Z,100223.09
2018-12-22T03:09:49.287Z,100215.85
2018-12-22T03:12:57.135Z,100220.89
2018-12-22T03:16:04.592Z,100227.43
2018-12-22T03:19:12.053Z,100228.27
2018-12-22T03:22:19.526Z,100225.34
2018-12-22T03:25:27.394Z,100237.83
2018-12-22T03:28:34.961Z,100232.73
2018-12-22T03:31:42.490Z,100231.36
2018-12-22T03:34:50.004Z,100243.51
2018-12-22T03:37:57.851Z,100233.43
2018-12-22T03:41:06.431Z,100236.48
2018-12-22T03:44:13.891Z,100240.41
2018-12-22T03:47:21.372Z,100247.02
2018-12-22T03:50:28.880Z,100246.73
2018-12-22T03:53:48.748Z,100243.00
2018-12-22T03:56:56.222Z,100257.95
2018-12-22T04:00:05.657Z,100259.34
2018-12-22T04:03:13.133Z,100254.58
2018-12-22T04:06:20.608Z,100255.88
2018-12-22T04:09:40.675Z,100258.39
2018-12-22T04:13:02.168Z,100264.75
2018-12-22T04:16:20.806Z,100265.77
2018-12-22T04:19:40.384Z,100275.52
2018-12-22T04:22:59.688Z,100278.01
2018-12-22T04:26:20.247Z,100278.70
2018-12-22T04:29:39.233Z,100286.27
2018-12-22T04:32:46.706Z,100298.04
2018-12-22T04:35:54.195Z,100293.06
2018-12-22T04:39:01.764Z,100299.39
2018-12-22T04:42:21.388Z,100300.88
2018-12-22T04:45:40.224Z,100308.50
2018-12-22T04:49:02.651Z,100308.97
2018-12-22T04:52:10.121Z,100311.41
2018-12-22T04:55:17.704Z,100309.88
2018-12-22T04:58:25.248Z,100312.06
2018-12-22T05:01:32.704Z,100319.90
2018-12-22T05:04:52.741Z,100313.76
2018-12-22T05:08:13.412Z,100316.48
2018-12-22T05:11:20.901Z,100320.09
2018-12-22T05:14:28.913Z,100316.53
2018-12-22T05:17:36.485Z,100315.84
2018-12-22T05:20:44.353Z,100323.28
2018-12-22T05:23:51.824Z,100325.27
2018-12-22T05:26:59.270Z,100331.92
2018-12-22T05:30:08.712Z,100332.44
2018-12-22T05:33:16.178Z,100341.81
2018-12-22T05:39:40.584Z,100353.97
2018-12-22T05:42:48.238Z,100355.72
2018-12-22T05:45:55.991Z,100358.72
2018-12-22T05:49:03.824Z,100358.91
2018-12-22T05:52:24.236Z,100359.53
2018-12-22T05:55:31.924Z,100364.66
2018-12-22T05:58:39.471Z,100362.63
2018-12-22T06:01:46.943Z,100356.03
2018-12-22T06:04:54.666Z,100370.20
2018-12-22T06:08:02.863Z,100372.94
2018-12-22T06:11:10.387Z,100374.03
2018-12-22T06:14:17.851Z,100372.16
2018-12-22T06:17:38.168Z,100376.64
2018-12-22T06:20:59.600Z,100382.11
2018-12-22T06:24:18.378Z,100390.17
2018-12-22T06:27:38.520Z,100394.95
2018-12-22T06:30:46.043Z,100390.44
2018-12-22T06:33:53.508Z,100395.23
2018-12-22T06:37:01.061Z,100394.98
2018-12-22T06:40:09.131Z,100396.16
2018-12-22T06:43:16.581Z,100396.80
2018-12-22T06:49:42.644Z,100412.40
2018-12-22T06:53:01.432Z,100412.63
2018-12-22T06:56:22.096Z,100411.41
2018-12-22T06:59:42.539Z,100407.14
2018-12-22T07:03:03.252Z,100411.44
2018-12-22T07:09:29.437Z,100425.52
2018-12-22T07:12:50.536Z,100432.23
2018-12-22T07:15:58.351Z,100438.27
2018-12-22T07:19:06.312Z,100440.84
2018-12-22T07:22:13.839Z,100452.90
2018-12-22T07:25:21.351Z,100456.91
2018-12-22T07:28:28.925Z,100469.71
2018-12-22T07:31:36.400Z,100477.18
2018-12-22T07:34:57.664Z,100480.19
2018-12-22T07:38:15.655Z,100482.35
2018-12-22T07:41:37.043Z,100488.90
2018-12-22T07:44:44.491Z,100485.81
2018-12-22T07:47:52.129Z,100481.23
2018-12-22T07:50:59.872Z,100490.31
2018-12-22T07:54:07.519Z,100497.85
2018-12-22T07:57:14.992Z,100507.28
2018-12-22T08:00:22.568Z,100517.45
2018-12-22T08:03:43.452Z,100517.84
2018-12-22T08:07:03.932Z,100526.68
2018-12-22T08:10:24.308Z,100536.00
2018-12-22T08:13:43.525Z,100549.40
2018-12-22T08:17:03.693Z,100548.56
2018-12-22T08:20:23.185Z,100553.53
2018-12-22T08:23:43.828Z,100559.25
2018-12-22T08:27:05.825Z,100560.20
2018-12-22T08:30:13.363Z,100574.65
2018-12-22T08:33:21.158Z,100575.91
2018-12-22T08:36:28.781Z,100588.63
2018-12-22T08:39:47.143Z,100596.27
2018-12-22T08:43:05.930Z,100601.69
2018-12-22T08:46:27.152Z,100617.27
2018-12-22T08:49:34.679Z,100627.41
2018-12-22T08:52:42.255Z,100620.98
2018-12-22T08:56:02.896Z,100634.67
2018-12-22T08:59:10.541Z,100627.16
2018-12-22T09:02:18.054Z,100634.05
2018-12-22T09:05:25.532Z,100645.28
2018-12-22T09:08:33.092Z,100653.96
2018-12-22T09:11:51.280Z,100659.81
2018-12-22T09:15:14.095Z,100670.87
2018-12-22T09:18:21.574Z,100678.80
2018-12-22T09:21:29.026Z,100682.47
2018-12-22T09:24:48.513Z,100693.12
2018-12-22T09:27:56.041Z,100698.39
2018-12-22T09:34:22.172Z,100701.61
2018-12-22T09:37:41.449Z,100701.28
2018-12-22T09:41:01.112Z,100720.06
2018-12-22T09:44:08.689Z,100722.75
2018-12-22T09:47:16.161Z,100726.25
2018-12-22T09:50:23.743Z,100731.81
2018-12-22T09:53:31.208Z,100729.58
2018-12-22T09:56:51.549Z,100737.05
2018-12-22T10:00:14.376Z,100743.75
2018-12-22T10:03:21.852Z,100747.34
2018-12-22T10:10:15.754Z,100744.16
2018-12-22T10:13:38.247Z,100758.17
2018-12-22T10:16:58.028Z,100758.73
2018-12-22T10:20:18.700Z,100767.55
2018-12-22T10:23:41.171Z,100765.94
2018-12-22T10:27:01.288Z,100767.08
2018-12-22T10:30:15.196Z,100770.09
2018-12-22T10:33:22.768Z,100763.11
2018-12-22T10:36:43.469Z,100772.39
2018-12-22T10:39:50.901Z,100771.17
2018-12-22T10:42:58.461Z,100778.50
2018-12-22T10:46:06.092Z,100782.77
2018-12-22T10:49:14.024Z,100786.73
2018-12-22T10:52:36.640Z,100783.10
2018-12-22T10:55:44.136Z,100785.69
2018-12-22T10:58:51.656Z,100787.36
2018-12-22T11:01:59.112Z,100796.73
2018-12-22T11:05:11.036Z,100799.73
2018-12-22T11:08:19.335Z,100800.48
2018-12-22T11:11:26.809Z,100813.94
2018-12-22T11:14:34.356Z,100810.19
2018-12-22T11:17:41.977Z,100820.19
2018-12-22T11:21:04.510Z,100822.48
2018-12-22T11:24:12.063Z,100821.41
2018-12-22T11:27:19.703Z,100829.48
2018-12-22T11:30:43.676Z,100835.09
2018-12-22T11:34:10.931Z,100837.17
2018-12-22T11:37:18.478Z,100841.91
2018-12-22T11:40:26.128Z,100847.88
2018-12-22T11:43:33.611Z,100840.91
2018-12-22T11:47:09.899Z,100843.55
2018-12-22T11:50:23.362Z,100837.78
2018-12-22T11:53:30.812Z,100844.88
2018-12-22T11:56:38.803Z,100850.77
2018-12-22T12:00:11.200Z,100850.27
2018-12-22T12:03:18.723Z,100849.56
2018-12-22T12:06:45.891Z,100856.63
2018-12-22T12:10:13.013Z,100861.23
2018-12-22T12:13:37.732Z,100864.44
2018-12-22T12:19:23.093Z,100871.55
2018-12-22T12:22:30.632Z,100872.72
2018-12-22T12:25:38.108Z,100877.17
2018-12-22T12:28:45.864Z,100877.05
2018-12-22T12:32:08.033Z,100880.73
2018-12-22T12:35:15.973Z,100885.30
2018-12-22T12:38:23.695Z,100894.37
2018-12-22T12:41:31.732Z,100897.01
2018-12-22T12:44:42.773Z,100906.64
2018-12-22T12:48:08.600Z,100904.63
2018-12-22T12:51:29.304Z,100912.73
2018-12-22T12:54:36.796Z,100915.67
2018-12-22T12:57:44.315Z,100905.74
2018-12-22T13:00:52.184Z,100917.58
2018-12-22T13:04:17.730Z,100922.19
2018-12-22T13:07:40.192Z,100928.89
2018-12-22T13:10:47.764Z,100930.59
2018-12-22T13:14:02.343Z,100941.19
2018-12-22T13:17:26.095Z,100947.49
2018-12-22T13:20:33.612Z,100955.96
2018-12-22T13:23:41.112Z,100963.16
2018-12-22T13:26:48.583Z,100962.94
2018-12-22T13:29:56.195Z,100960.97
2018-12-22T13:33:18.992Z,100961.84
2018-12-22T13:36:34.296Z,100966.61
2018-12-22T13:39:36.428Z,100971.38
2018-12-22T13:42:58.940Z,100973.96
2018-12-22T13:46:06.860Z,100969.73
2018-12-22T13:49:15.250Z,100973.89
2018-12-22T13:52:23.100Z,100972.14
2018-12-22T13:55:31.097Z,100968.37
2018-12-22T14:02:02.956Z,100966.19
2018-12-22T14:05:15.604Z,100964.44
2018-12-22T14:11:41.564Z,100972.70
2018-12-22T14:18:54.173Z,100975.08
2018-12-22T14:22:01.776Z,100982.95
2018-12-22T14:25:30.696Z,100983.56
2018-12-22T14:31:58.165Z,100990.47
2018-12-22T14:35:27.264Z,100997.36
2018-12-22T14:41:56.035Z,101010.81
2018-12-22T14:45:18.363Z,101008.88
2018-12-22T14:51:44.756Z,101020.92
2018-12-22T14:55:09.593Z,101020.42
2018-12-22T15:01:47.856Z,101028.50
2018-12-22T15:08:15.312Z,101032.58
2018-12-22T15:11:38.090Z,101035.36
2018-12-22T15:15:00.737Z,101034.80
2018-12-22T15:18:25.584Z,101036.09
2018-12-22T15:21:45.560Z,101046.98
2018-12-22T15:28:13.731Z,101046.65
2018-12-22T15:31:37.204Z,101051.23
2018-12-22T15:38:03.476Z,101055.42
2018-12-22T15:41:22.042Z,101064.04
2018-12-22T15:47:46.732Z,101066.51
2018-12-22T15:50:54.284Z,101068.38
2018-12-22T15:54:01.761Z,101072.99
2018-12-22T15:57:09.670Z,101064.56
2018-12-22T16:00:32.671Z,101075.59
2018-12-22T16:03:40.207Z,101073.91
2018-12-22T16:06:47.687Z,101079.92
2018-12-22T16:13:16.268Z,101089.53
2018-12-22T16:16:40.096Z,101094.11
2018-12-22T16:23:08.603Z,101094.63
2018-12-22T16:26:16.101Z,101098.73
2018-12-22T16:29:32.946Z,101099.40
2018-12-22T16:32:41.441Z,101102.84
2018-12-22T16:35:49.212Z,101109.00
2018-12-22T16:42:19.100Z,101108.19
2018-12-22T16:45:27.111Z,101107.31
2018-12-22T16:51:58.399Z,101121.49
2018-12-22T16:55:19.997Z,101123.20
2018-12-22T17:02:00.385Z,101135.92
2018-12-22T17:08:26.556Z,101149.27
2018-12-22T17:11:46.319Z,101152.77
2018-12-22T17:15:09.469Z,101164.70
2018-12-22T17:18:17.023Z,101169.67
2018-12-22T17:22:24.968Z,101165.02
2018-12-22T17:25:58.643Z,101170.66
2018-12-22T17:29:20.995Z,101178.92
2018-12-22T17:32:28.522Z,101185.33
2018-12-22T17:35:38.317Z,101188.44
2018-12-22T17:38:45.804Z,101190.33
2018-12-22T17:41:53.328Z,101196.55
2018-12-22T17:45:00.772Z,101196.11
2018-12-22T17:48:08.316Z,101201.94
2018-12-22T17:51:15.791Z,101199.37
2018-12-22T17:54:36.135Z,101208.34
2018-12-22T17:57:55.700Z,101212.81
2018-12-22T18:01:17.368Z,101224.11
2018-12-22T18:07:44.049Z,101236.25
2018-12-22T18:10:51.780Z,101243.40
2018-12-22T18:13:59.224Z,101250.28
2018-12-22T18:17:06.692Z,101263.40
2018-12-22T18:20:28.155Z,101269.56
2018-12-22T18:23:35.696Z,101272.38
2018-12-22T18:26:43.398Z,101273.55
2018-12-22T18:29:50.955Z,101281.91
2018-12-22T18:33:12.399Z,101284.43
2018-12-22T18:36:34.920Z,101290.58
2018-12-22T18:39:42.481Z,101300.52
2018-12-22T18:42:49.965Z,101301.23
2018-12-22T18:45:57.516Z,101306.32
2018-12-22T18:49:06.168Z,101311.59
2018-12-22T18:52:13.655Z,101309.81
2018-12-22T18:55:33.525Z,101315.00
2018-12-22T19:01:59.214Z,101316.23
2018-12-22T19:08:28.365Z,101322.14
2018-12-22T19:11:35.892Z,101327.98
2018-12-22T19:18:14.663Z,101336.16
2018-12-22T19:21:33.785Z,101339.33
2018-12-22T19:24:53.784Z,101346.66
2018-12-22T19:28:01.371Z,101355.14
2018-12-22T19:31:08.936Z,101358.34
2018-12-22T19:37:37.011Z,101363.66
2018-12-22T19:40:57.224Z,101374.01
2018-12-22T19:44:18.098Z,101377.98
2018-12-22T19:47:25.937Z,101381.27
2018-12-22T19:53:55.231Z,101383.86
2018-12-22T19:57:15.472Z,101384.44
2018-12-22T20:00:36.811Z,101384.08
2018-12-22T20:04:02.066Z,101398.41
2018-12-22T20:07:06.084Z,101408.68
2018-12-22T20:10:13.984Z,101409.58
2018-12-22T20:13:35.624Z,101409.53
2018-12-22T20:16:43.128Z,101415.50
2018-12-22T20:19:50.744Z,101417.11
2018-12-22T20:22:58.196Z,101417.02
2018-12-22T20:26:05.676Z,101423.97
2018-12-22T20:29:28.215Z,101420.35
2018-12-22T20:32:48.757Z,101422.83
2018-12-22T20:36:08.597Z,101428.38
2018-12-22T20:39:16.130Z,101427.48
2018-12-22T20:42:23.595Z,101431.81
2018-12-22T20:45:31.061Z,101436.70
2018-12-22T20:48:38.853Z,101440.98
2018-12-22T20:51:46.332Z,101437.55
2018-12-22T20:54:53.843Z,101439.02
2018-12-22T20:58:01.362Z,101440.74
2018-12-22T21:01:08.839Z,101444.55
2018-12-22T21:04:31.712Z,101448.08
2018-12-22T21:07:54.435Z,101451.09
2018-12-22T21:11:17.932Z,101450.59
2018-12-22T21:14:25.448Z,101456.27
2018-12-22T21:17:32.900Z,101451.94
2018-12-22T21:20:40.452Z,101471.84
2018-12-22T21:23:47.988Z,101471.63
2018-12-22T21:27:08.627Z,101473.92
2018-12-22T21:30:16.151Z,101474.64
2018-12-22T21:33:23.696Z,101481.51
2018-12-22T21:36:31.218Z,101477.17
2018-12-22T21:39:38.793Z,101484.84
2018-12-22T21:42:59.420Z,101481.80
2018-12-22T21:46:06.364Z,101490.06
2018-12-22T21:49:13.923Z,101488.63
2018-12-22T21:52:21.510Z,101495.39
2018-12-22T21:55:28.974Z,101494.92
2018-12-22T21:58:36.596Z,101492.68
2018-12-22T22:01:44.095Z,101506.48
2018-12-22T22:05:07.054Z,101504.03
2018-12-22T22:08:14.591Z,101504.05
2018-12-22T22:11:22.523Z,101501.84
2018-12-22T22:14:45.585Z,101513.95
2018-12-22T22:18:08.274Z,101505.16
2018-12-22T22:21:31.740Z,101512.34
2018-12-22T22:24:39.232Z,101515.47
2018-12-22T22:27:46.775Z,101519.77
2018-12-22T22:30:54.314Z,101518.92
2018-12-22T22:34:02.240Z,101520.21
2018-12-22T22:37:09.835Z,101520.97
2018-12-22T22:40:17.416Z,101527.97
2018-12-22T22:46:44.309Z,101528.95
2018-12-22T22:50:06.087Z,101531.84
2018-12-22T22:53:13.683Z,101526.36
2018-12-22T22:56:21.144Z,101529.64
2018-12-22T22:59:28.660Z,101537.86
2018-12-22T23:05:57.204Z,101542.95
2018-12-22T23:09:08.137Z,101545.45
2018-12-22T23:12:15.925Z,101538.30
2018-12-22T23:15:37.284Z,101543.02
2018-12-22T23:18:57.448Z,101541.13
2018-12-22T23:22:05.364Z,101547.81
2018-12-22T23:25:12.929Z,101549.86
2018-12-22T23:28:20.554Z,101551.62
2018-12-22T23:31:28.052Z,101543.97
2018-12-22T23:34:35.532Z,101551.33
2018-12-22T23:37:44.164Z,101545.61
2018-12-22T23:40:51.658Z,101543.92
2018-12-22T23:43:59.264Z,101541.27
2018-12-22T23:47:07.037Z,101544.80
2018-12-22T23:50:14.578Z,101535.66
2018-12-22T23:53:22.165Z,101532.77
2018-12-22T23:56:29.643Z,101530.48
2018-12-22T23:59:37.644Z,101526.14
